sensor_id;sensor_type;location;lat;lon;timestamp;pressure;altitude;pressure_sealevel;temperature;humidity
72038;BME280;59900;50.788;12.904;2023-05-22T00:01:26;97501.63;;;19.09;68.53
72038;BME280;59900;50.788;12.904;2023-05-22T00:03:52;97500.56;;;19.10;69.29
72038;BME280;59900;50.788;12.904;2023-05-22T00:06:18;97498.41;;;19.07;68.65
72038;BME280;59900;50.788;12.904;2023-05-22T00:08:44;97492.53;;;19.05;68.28
72038;BME280;59900;50.788;12.904;2023-05-22T00:11:09;97496.75;;;19.01;69.11
72038;BME280;59900;50.788;12.904;2023-05-22T00:13:34;97489.25;;;18.98;67.84
72038;BME280;59900;50.788;12.904;2023-05-22T00:16:00;97488.94;;;18.94;69.57
72038;BME280;59900;50.788;12.904;2023-05-22T00:18:25;97487.09;;;18.95;69.05
72038;BME280;59900;50.788;12.904;2023-05-22T00:20:51;97492.16;;;18.96;69.71
72038;BME280;59900;50.788;12.904;2023-05-22T00:23:17;97491.59;;;18.94;69.18
72038;BME280;59900;50.788;12.904;2023-05-22T00:25:42;97484.41;;;18.95;70.13
72038;BME280;59900;50.788;12.904;2023-05-22T00:28:08;97487.28;;;18.88;67.48
72038;BME280;59900;50.788;12.904;2023-05-22T00:30:35;97481.91;;;18.83;67.48
72038;BME280;59900;50.788;12.904;2023-05-22T00:33:00;97487.22;;;18.83;68.18
72038;BME280;59900;50.788;12.904;2023-05-22T00:35:26;97477.56;;;18.77;68.03
72038;BME280;59900;50.788;12.904;2023-05-22T00:37:51;97472.75;;;18.74;67.73
72038;BME280;59900;50.788;12.904;2023-05-22T00:40:16;97475.91;;;18.71;67.35
72038;BME280;59900;50.788;12.904;2023-05-22T00:42:43;97476.44;;;18.73;69.75
72038;BME280;59900;50.788;12.904;2023-05-22T00:45:10;97483.94;;;18.76;70.30
72038;BME280;59900;50.788;12.904;2023-05-22T00:47:35;97479.09;;;18.73;69.83
72038;BME280;59900;50.788;12.904;2023-05-22T00:50:01;97482.84;;;18.72;69.02
72038;BME280;59900;50.788;12.904;2023-05-22T00:52:27;97482.25;;;18.70;69.38
72038;BME280;59900;50.788;12.904;2023-05-22T00:54:52;97472.69;;;18.69;68.28
72038;BME280;59900;50.788;12.904;2023-05-22T00:57:17;97473.41;;;18.65;67.87
72038;BME280;59900;50.788;12.904;2023-05-22T00:59:44;97473.91;;;18.62;67.31
72038;BME280;59900;50.788;12.904;2023-05-22T01:02:09;97474.72;;;18.62;69.63
72038;BME280;59900;50.788;12.904;2023-05-22T01:04:34;97470.16;;;18.58;68.95
72038;BME280;59900;50.788;12.904;2023-05-22T01:07:01;97467.72;;;18.56;68.37
72038;BME280;59900;50.788;12.904;2023-05-22T01:09:27;97472.00;;;18.57;69.42
72038;BME280;59900;50.788;12.904;2023-05-22T01:12:36;97469.31;;;18.52;69.06
72038;BME280;59900;50.788;12.904;2023-05-22T01:15:20;97470.38;;;18.56;69.46
72038;BME280;59900;50.788;12.904;2023-05-22T01:18:01;97466.63;;;18.52;69.49
72038;BME280;59900;50.788;12.904;2023-05-22T01:28:40;97467.19;;;18.54;70.81
72038;BME280;59900;50.788;12.904;2023-05-22T01:31:16;97463.97;;;18.52;69.23
72038;BME280;59900;50.788;12.904;2023-05-22T01:33:47;97463.72;;;18.54;69.84
72038;BME280;59900;50.788;12.904;2023-05-22T01:36:17;97466.63;;;18.52;68.99
72038;BME280;59900;50.788;12.904;2023-05-22T01:38:44;97468.16;;;18.48;69.79
72038;BME280;59900;50.788;12.904;2023-05-22T01:41:11;97468.97;;;18.49;69.91
72038;BME280;59900;50.788;12.904;2023-05-22T01:43:36;97459.94;;;18.50;69.20
72038;BME280;59900;50.788;12.904;2023-05-22T01:46:01;97458.34;;;18.49;69.28
72038;BME280;59900;50.788;12.904;2023-05-22T01:48:26;97454.28;;;18.46;70.41
72038;BME280;59900;50.788;12.904;2023-05-22T01:50:52;97456.13;;;18.45;69.91
72038;BME280;59900;50.788;12.904;2023-05-22T01:53:32;97456.63;;;18.42;69.67
72038;BME280;59900;50.788;12.904;2023-05-22T01:56:09;97448.34;;;18.39;69.31
72038;BME280;59900;50.788;12.904;2023-05-22T01:58:44;97454.16;;;18.36;69.13
72038;BME280;59900;50.788;12.904;2023-05-22T02:01:13;97447.47;;;18.33;68.71
72038;BME280;59900;50.788;12.904;2023-05-22T02:03:38;97453.84;;;18.32;69.47
72038;BME280;59900;50.788;12.904;2023-05-22T02:06:06;97449.31;;;18.33;68.86
72038;BME280;59900;50.788;12.904;2023-05-22T02:08:34;97450.56;;;18.25;69.20
72038;BME280;59900;50.788;12.904;2023-05-22T02:11:02;97443.31;;;18.21;68.16
72038;BME280;59900;50.788;12.904;2023-05-22T02:13:28;97449.69;;;18.20;68.37
72038;BME280;59900;50.788;12.904;2023-05-22T02:15:56;97438.41;;;18.13;68.59
72038;BME280;59900;50.788;12.904;2023-05-22T02:18:28;97444.06;;;18.16;69.54
72038;BME280;59900;50.788;12.904;2023-05-22T02:20:58;97447.03;;;18.20;69.63
72038;BME280;59900;50.788;12.904;2023-05-22T02:23:25;97440.66;;;18.21;70.48
72038;BME280;59900;50.788;12.904;2023-05-22T02:25:50;97436.94;;;18.22;70.43
72038;BME280;59900;50.788;12.904;2023-05-22T02:28:16;97439.59;;;18.22;70.62
72038;BME280;59900;50.788;12.904;2023-05-22T02:30:41;97435.31;;;18.21;70.18
72038;BME280;59900;50.788;12.904;2023-05-22T02:33:06;97439.59;;;18.22;70.80
72038;BME280;59900;50.788;12.904;2023-05-22T02:35:33;97428.91;;;18.17;69.92
72038;BME280;59900;50.788;12.904;2023-05-22T02:37:58;97435.50;;;18.14;69.19
72038;BME280;59900;50.788;12.904;2023-05-22T02:40:24;97435.75;;;18.13;69.03
72038;BME280;59900;50.788;12.904;2023-05-22T02:42:49;97439.47;;;18.12;68.71
72038;BME280;59900;50.788;12.904;2023-05-22T02:45:15;97429.56;;;18.07;68.82
72038;BME280;59900;50.788;12.904;2023-05-22T02:47:41;97434.25;;;18.00;69.06
72038;BME280;59900;50.788;12.904;2023-05-22T02:50:06;97432.91;;;17.98;70.66
72038;BME280;59900;50.788;12.904;2023-05-22T02:52:31;97434.34;;;17.88;69.28
72038;BME280;59900;50.788;12.904;2023-05-22T02:54:57;97424.78;;;17.87;70.61
72038;BME280;59900;50.788;12.904;2023-05-22T02:57:22;97427.44;;;17.87;70.47
72038;BME280;59900;50.788;12.904;2023-05-22T02:59:47;97431.38;;;17.85;71.96
72038;BME280;59900;50.788;12.904;2023-05-22T03:02:13;97428.16;;;17.83;71.93
72038;BME280;59900;50.788;12.904;2023-05-22T03:04:39;97435.59;;;17.81;71.32
72038;BME280;59900;50.788;12.904;2023-05-22T03:07:05;97436.41;;;17.81;72.00
72038;BME280;59900;50.788;12.904;2023-05-22T03:09:31;97430.50;;;17.79;72.13
72038;BME280;59900;50.788;12.904;2023-05-22T03:11:56;97429.69;;;17.79;71.97
72038;BME280;59900;50.788;12.904;2023-05-22T03:14:21;97436.06;;;17.78;72.16
72038;BME280;59900;50.788;12.904;2023-05-22T03:16:47;97431.00;;;17.76;72.32
72038;BME280;59900;50.788;12.904;2023-05-22T03:19:13;97428.34;;;17.76;71.60
72038;BME280;59900;50.788;12.904;2023-05-22T03:21:39;97426.16;;;17.73;72.04
72038;BME280;59900;50.788;12.904;2023-05-22T03:24:05;97426.41;;;17.72;71.49
72038;BME280;59900;50.788;12.904;2023-05-22T03:26:31;97431.97;;;17.70;71.78
72038;BME280;59900;50.788;12.904;2023-05-22T03:28:56;97436.56;;;17.75;71.69
72038;BME280;59900;50.788;12.904;2023-05-22T03:31:26;97429.13;;;17.77;70.85
72038;BME280;59900;50.788;12.904;2023-05-22T03:33:52;97433.16;;;17.79;71.07
72038;BME280;59900;50.788;12.904;2023-05-22T03:36:18;97427.63;;;17.81;69.95
72038;BME280;59900;50.788;12.904;2023-05-22T03:38:43;97423.09;;;17.81;70.78
72038;BME280;59900;50.788;12.904;2023-05-22T03:41:09;97433.47;;;17.83;70.45
72038;BME280;59900;50.788;12.904;2023-05-22T03:43:34;97430.00;;;17.82;69.45
72038;BME280;59900;50.788;12.904;2023-05-22T03:45:59;97419.97;;;17.84;69.15
72038;BME280;59900;50.788;12.904;2023-05-22T03:48:25;97422.63;;;17.84;70.34
72038;BME280;59900;50.788;12.904;2023-05-22T03:50:50;97421.06;;;17.88;70.93
72038;BME280;59900;50.788;12.904;2023-05-22T03:53:16;97422.69;;;17.89;70.87
72038;BME280;59900;50.788;12.904;2023-05-22T03:55:41;97417.69;;;17.93;71.25
72038;BME280;59900;50.788;12.904;2023-05-22T03:58:06;97423.56;;;17.95;70.89
72038;BME280;59900;50.788;12.904;2023-05-22T04:00:31;97423.78;;;17.93;70.79
72038;BME280;59900;50.788;12.904;2023-05-22T04:02:57;97426.22;;;17.95;71.18
72038;BME280;59900;50.788;12.904;2023-05-22T04:05:22;97420.09;;;17.95;71.61
72038;BME280;59900;50.788;12.904;2023-05-22T04:07:48;97417.69;;;17.93;69.99
72038;BME280;59900;50.788;12.904;2023-05-22T04:10:13;97424.53;;;17.89;68.96
72038;BME280;59900;50.788;12.904;2023-05-22T04:12:38;97419.47;;;17.87;70.20
72038;BME280;59900;50.788;12.904;2023-05-22T04:15:04;97431.16;;;17.86;69.53
72038;BME280;59900;50.788;12.904;2023-05-22T04:17:30;97420.03;;;17.89;70.57
72038;BME280;59900;50.788;12.904;2023-05-22T04:19:57;97429.63;;;17.90;70.73
72038;BME280;59900;50.788;12.904;2023-05-22T04:22:23;97421.88;;;17.89;71.07
72038;BME280;59900;50.788;12.904;2023-05-22T04:24:48;97423.22;;;17.91;71.34
72038;BME280;59900;50.788;12.904;2023-05-22T04:27:14;97429.38;;;17.92;71.33
72038;BME280;59900;50.788;12.904;2023-05-22T04:29:40;97427.25;;;17.94;71.58
72038;BME280;59900;50.788;12.904;2023-05-22T04:32:06;97427.50;;;17.92;71.45
72038;BME280;59900;50.788;12.904;2023-05-22T04:34:34;97429.69;;;17.96;71.73
72038;BME280;59900;50.788;12.904;2023-05-22T04:37:02;97431.03;;;17.98;70.82
72038;BME280;59900;50.788;12.904;2023-05-22T04:39:27;97422.81;;;18.00;70.44
72038;BME280;59900;50.788;12.904;2023-05-22T04:41:53;97429.50;;;18.02;70.74
72038;BME280;59900;50.788;12.904;2023-05-22T04:44:18;97426.84;;;18.02;69.78
72038;BME280;59900;50.788;12.904;2023-05-22T04:46:47;97422.09;;;18.04;71.05
72038;BME280;59900;50.788;12.904;2023-05-22T04:49:12;97428.28;;;18.10;69.52
72038;BME280;59900;50.788;12.904;2023-05-22T04:51:38;97425.63;;;18.10;70.14
72038;BME280;59900;50.788;12.904;2023-05-22T04:54:04;97420.63;;;18.13;71.03
72038;BME280;59900;50.788;12.904;2023-05-22T04:56:29;97414.00;;;18.16;70.08
72038;BME280;59900;50.788;12.904;2023-05-22T04:58:55;97416.72;;;18.21;70.37
72038;BME280;59900;50.788;12.904;2023-05-22T05:01:20;97417.03;;;18.24;70.65
72038;BME280;59900;50.788;12.904;2023-05-22T05:03:46;97421.59;;;18.29;70.12
72038;BME280;59900;50.788;12.904;2023-05-22T05:06:12;97419.00;;;18.34;69.62
72038;BME280;59900;50.788;12.904;2023-05-22T05:08:37;97424.16;;;18.40;71.16
72038;BME280;59900;50.788;12.904;2023-05-22T05:11:02;97428.72;;;18.45;71.45
72038;BME280;59900;50.788;12.904;2023-05-22T05:13:28;97429.88;;;18.49;70.44
72038;BME280;59900;50.788;12.904;2023-05-22T05:15:53;97429.38;;;18.52;70.28
72038;BME280;59900;50.788;12.904;2023-05-22T05:18:18;97439.75;;;18.54;70.42
72038;BME280;59900;50.788;12.904;2023-05-22T05:20:44;97430.72;;;18.55;69.63
72038;BME280;59900;50.788;12.904;2023-05-22T05:23:09;97431.00;;;18.58;70.20
72038;BME280;59900;50.788;12.904;2023-05-22T05:25:34;97428.44;;;18.63;69.91
72038;BME280;59900;50.788;12.904;2023-05-22T05:28:03;97436.47;;;18.68;70.04
72038;BME280;59900;50.788;12.904;2023-05-22T05:30:34;97436.78;;;18.72;70.19
72038;BME280;59900;50.788;12.904;2023-05-22T05:32:59;97428.03;;;18.76;70.37
72038;BME280;59900;50.788;12.904;2023-05-22T05:35:25;97430.47;;;18.78;69.51
72038;BME280;59900;50.788;12.904;2023-05-22T05:37:50;97429.19;;;18.85;70.42
72038;BME280;59900;50.788;12.904;2023-05-22T05:40:15;97430.03;;;18.91;70.16
72038;BME280;59900;50.788;12.904;2023-05-22T05:42:40;97431.16;;;18.95;69.85
72038;BME280;59900;50.788;12.904;2023-05-22T05:45:06;97440.00;;;19.00;69.03
72038;BME280;59900;50.788;12.904;2023-05-22T05:47:31;97433.66;;;19.07;69.60
72038;BME280;59900;50.788;12.904;2023-05-22T05:49:57;97430.50;;;19.10;69.09
72038;BME280;59900;50.788;12.904;2023-05-22T05:52:22;97432.16;;;19.16;69.28
72038;BME280;59900;50.788;12.904;2023-05-22T05:54:50;97427.69;;;19.21;69.30
72038;BME280;59900;50.788;12.904;2023-05-22T05:57:15;97430.66;;;19.25;69.21
72038;BME280;59900;50.788;12.904;2023-05-22T05:59:41;97425.34;;;19.30;69.23
72038;BME280;59900;50.788;12.904;2023-05-22T06:02:06;97431.53;;;19.35;68.03
72038;BME280;59900;50.788;12.904;2023-05-22T06:04:31;97429.13;;;19.34;66.11
72038;BME280;59900;50.788;12.904;2023-05-22T06:06:57;97425.16;;;19.36;67.86
72038;BME280;59900;50.788;12.904;2023-05-22T06:09:22;97431.88;;;19.44;67.45
72038;BME280;59900;50.788;12.904;2023-05-22T06:11:47;97433.81;;;19.48;67.94
72038;BME280;59900;50.788;12.904;2023-05-22T06:14:12;97425.34;;;19.56;68.04
72038;BME280;59900;50.788;12.904;2023-05-22T06:16:38;97425.13;;;19.63;67.37
72038;BME280;59900;50.788;12.904;2023-05-22T06:19:03;97428.34;;;19.70;67.08
72038;BME280;59900;50.788;12.904;2023-05-22T06:21:28;97427.31;;;19.76;67.79
72038;BME280;59900;50.788;12.904;2023-05-22T06:23:53;97428.97;;;19.82;65.82
72038;BME280;59900;50.788;12.904;2023-05-22T06:26:19;97430.38;;;19.90;67.08
72038;BME280;59900;50.788;12.904;2023-05-22T06:28:45;97431.19;;;19.95;67.19
72038;BME280;59900;50.788;12.904;2023-05-22T06:31:11;97422.41;;;20.00;66.99
72038;BME280;59900;50.788;12.904;2023-05-22T06:33:36;97422.44;;;20.05;66.00
72038;BME280;59900;50.788;12.904;2023-05-22T06:36:05;97434.22;;;20.14;67.44
72038;BME280;59900;50.788;12.904;2023-05-22T06:38:31;97424.38;;;20.20;65.61
72038;BME280;59900;50.788;12.904;2023-05-22T06:40:56;97429.50;;;20.26;64.89
72038;BME280;59900;50.788;12.904;2023-05-22T06:43:22;97417.00;;;20.32;64.56
72038;BME280;59900;50.788;12.904;2023-05-22T06:45:47;97426.09;;;20.36;64.87
72038;BME280;59900;50.788;12.904;2023-05-22T06:48:12;97421.56;;;20.41;65.03
72038;BME280;59900;50.788;12.904;2023-05-22T06:50:37;97421.88;;;20.45;64.71
72038;BME280;59900;50.788;12.904;2023-05-22T06:53:02;97426.41;;;20.49;64.88
72038;BME280;59900;50.788;12.904;2023-05-22T06:55:28;97426.44;;;20.54;64.53
72038;BME280;59900;50.788;12.904;2023-05-22T06:57:53;97422.44;;;20.57;64.01
72038;BME280;59900;50.788;12.904;2023-05-22T07:00:18;97426.19;;;20.61;64.67
72038;BME280;59900;50.788;12.904;2023-05-22T07:02:44;97425.13;;;20.67;65.73
72038;BME280;59900;50.788;12.904;2023-05-22T07:05:10;97420.88;;;20.71;64.00
72038;BME280;59900;50.788;12.904;2023-05-22T07:07:35;97422.50;;;20.77;63.94
72038;BME280;59900;50.788;12.904;2023-05-22T07:10:00;97428.38;;;20.84;64.17
72038;BME280;59900;50.788;12.904;2023-05-22T07:12:26;97423.59;;;20.91;63.15
72038;BME280;59900;50.788;12.904;2023-05-22T07:14:52;97422.53;;;20.97;63.22
72038;BME280;59900;50.788;12.904;2023-05-22T07:17:17;97422.00;;;21.00;63.35
72038;BME280;59900;50.788;12.904;2023-05-22T07:19:44;97405.16;;;21.05;62.81
72038;BME280;59900;50.788;12.904;2023-05-22T07:22:10;97419.13;;;21.12;61.12
72038;BME280;59900;50.788;12.904;2023-05-22T07:24:35;97408.69;;;21.20;61.52
72038;BME280;59900;50.788;12.904;2023-05-22T07:27:00;97415.13;;;21.25;59.97
72038;BME280;59900;50.788;12.904;2023-05-22T07:29:25;97416.44;;;21.32;60.21
72038;BME280;59900;50.788;12.904;2023-05-22T07:31:51;97414.03;;;21.41;61.27
72038;BME280;59900;50.788;12.904;2023-05-22T07:34:16;97411.09;;;21.47;60.29
72038;BME280;59900;50.788;12.904;2023-05-22T07:36:41;97401.72;;;21.55;60.37
72038;BME280;59900;50.788;12.904;2023-05-22T07:39:07;97409.78;;;21.60;60.23
72038;BME280;59900;50.788;12.904;2023-05-22T07:41:33;97406.53;;;21.68;59.98
72038;BME280;59900;50.788;12.904;2023-05-22T07:43:59;97404.94;;;21.77;60.48
72038;BME280;59900;50.788;12.904;2023-05-22T07:46:24;97398.22;;;21.85;60.31
72038;BME280;59900;50.788;12.904;2023-05-22T07:48:49;97404.38;;;21.90;60.22
72038;BME280;59900;50.788;12.904;2023-05-22T07:51:14;97398.25;;;21.90;59.85
72038;BME280;59900;50.788;12.904;2023-05-22T07:53:40;97393.13;;;21.93;59.57
72038;BME280;59900;50.788;12.904;2023-05-22T07:56:05;97398.22;;;22.00;60.01
72038;BME280;59900;50.788;12.904;2023-05-22T07:58:30;97392.84;;;22.10;59.46
72038;BME280;59900;50.788;12.904;2023-05-22T08:00:56;97397.13;;;22.16;59.80
72038;BME280;59900;50.788;12.904;2023-05-22T08:03:21;97399.22;;;22.24;58.82
72038;BME280;59900;50.788;12.904;2023-05-22T08:05:46;97402.13;;;22.32;59.40
72038;BME280;59900;50.788;12.904;2023-05-22T08:08:12;97388.72;;;22.43;59.74
72038;BME280;59900;50.788;12.904;2023-05-22T08:10:37;97389.19;;;22.50;58.00
72038;BME280;59900;50.788;12.904;2023-05-22T08:13:02;97390.50;;;22.52;57.27
72038;BME280;59900;50.788;12.904;2023-05-22T08:15:31;97387.53;;;22.59;57.80
72038;BME280;59900;50.788;12.904;2023-05-22T08:17:56;97386.19;;;22.66;56.24
72038;BME280;59900;50.788;12.904;2023-05-22T08:20:21;97379.97;;;22.76;57.17
72038;BME280;59900;50.788;12.904;2023-05-22T08:22:46;97385.06;;;22.77;56.11
72038;BME280;59900;50.788;12.904;2023-05-22T08:25:12;97377.25;;;22.81;56.34
72038;BME280;59900;50.788;12.904;2023-05-22T08:27:37;97377.75;;;22.88;56.65
72038;BME280;59900;50.788;12.904;2023-05-22T08:30:03;97379.06;;;22.91;55.66
72038;BME280;59900;50.788;12.904;2023-05-22T08:32:29;97377.16;;;22.96;55.81
72038;BME280;59900;50.788;12.904;2023-05-22T08:34:54;97379.53;;;23.03;55.58
72038;BME280;59900;50.788;12.904;2023-05-22T08:37:19;97380.59;;;23.07;54.37
72038;BME280;59900;50.788;12.904;2023-05-22T08:39:45;97376.75;;;23.18;54.90
72038;BME280;59900;50.788;12.904;2023-05-22T08:42:10;97373.50;;;23.21;54.57
72038;BME280;59900;50.788;12.904;2023-05-22T08:44:35;97374.81;;;23.23;53.67
72038;BME280;59900;50.788;12.904;2023-05-22T08:47:01;97376.69;;;23.23;53.85
72038;BME280;59900;50.788;12.904;2023-05-22T08:49:29;97369.66;;;23.32;52.44
72038;BME280;59900;50.788;12.904;2023-05-22T08:52:03;97369.59;;;23.37;52.65
72038;BME280;59900;50.788;12.904;2023-05-22T08:54:31;97369.31;;;23.43;52.43
72038;BME280;59900;50.788;12.904;2023-05-22T08:56:57;97371.44;;;23.47;52.67
72038;BME280;59900;50.788;12.904;2023-05-22T08:59:23;97365.44;;;23.55;52.48
72038;BME280;59900;50.788;12.904;2023-05-22T09:01:48;97363.56;;;23.55;52.40
72038;BME280;59900;50.788;12.904;2023-05-22T09:04:16;97359.81;;;23.56;50.87
72038;BME280;59900;50.788;12.904;2023-05-22T09:06:45;97361.19;;;23.54;51.31
72038;BME280;59900;50.788;12.904;2023-05-22T09:09:11;97359.00;;;23.56;51.47
72038;BME280;59900;50.788;12.904;2023-05-22T09:11:36;97360.31;;;23.58;50.44
72038;BME280;59900;50.788;12.904;2023-05-22T09:14:08;97354.63;;;23.65;50.24
72038;BME280;59900;50.788;12.904;2023-05-22T09:16:46;97359.03;;;23.79;49.62
72038;BME280;59900;50.788;12.904;2023-05-22T09:19:12;97351.47;;;23.86;49.90
72038;BME280;59900;50.788;12.904;2023-05-22T09:21:38;97349.78;;;23.90;48.76
72038;BME280;59900;50.788;12.904;2023-05-22T09:24:07;97346.53;;;23.93;48.69
72038;BME280;59900;50.788;12.904;2023-05-22T09:26:33;97347.22;;;24.04;49.76
72038;BME280;59900;50.788;12.904;2023-05-22T09:28:58;97348.25;;;24.08;47.99
72038;BME280;59900;50.788;12.904;2023-05-22T09:31:23;97342.25;;;24.16;48.19
72038;BME280;59900;50.788;12.904;2023-05-22T09:33:49;97339.53;;;24.21;48.83
72038;BME280;59900;50.788;12.904;2023-05-22T09:36:14;97343.19;;;24.30;47.73
72038;BME280;59900;50.788;12.904;2023-05-22T09:38:40;97342.53;;;24.38;48.35
72038;BME280;59900;50.788;12.904;2023-05-22T09:41:05;97344.56;;;24.46;47.82
72038;BME280;59900;50.788;12.904;2023-05-22T09:43:32;97346.41;;;24.51;46.75
72038;BME280;59900;50.788;12.904;2023-05-22T09:46:01;97341.22;;;24.54;47.08
72038;BME280;59900;50.788;12.904;2023-05-22T09:48:32;97342.25;;;24.59;46.67
72038;BME280;59900;50.788;12.904;2023-05-22T09:50:58;97336.31;;;24.62;46.36
72038;BME280;59900;50.788;12.904;2023-05-22T09:53:26;97342.19;;;24.64;46.88
72038;BME280;59900;50.788;12.904;2023-05-22T09:55:54;97332.09;;;24.74;46.85
72038;BME280;59900;50.788;12.904;2023-05-22T09:58:23;97329.31;;;24.79;46.85
72038;BME280;59900;50.788;12.904;2023-05-22T10:00:49;97333.34;;;24.82;46.54
72038;BME280;59900;50.788;12.904;2023-05-22T10:03:19;97330.88;;;24.85;45.80
72038;BME280;59900;50.788;12.904;2023-05-22T10:05:49;97323.53;;;24.91;45.69
72038;BME280;59900;50.788;12.904;2023-05-22T10:08:20;97326.13;;;24.96;45.63
72038;BME280;59900;50.788;12.904;2023-05-22T10:10:50;97318.38;;;24.94;45.98
72038;BME280;59900;50.788;12.904;2023-05-22T10:13:17;97319.59;;;25.02;45.89
72038;BME280;59900;50.788;12.904;2023-05-22T10:15:42;97315.81;;;25.03;45.52
72038;BME280;59900;50.788;12.904;2023-05-22T10:18:08;97319.81;;;25.05;44.63
72038;BME280;59900;50.788;12.904;2023-05-22T10:20:34;97307.56;;;25.13;44.68
72038;BME280;59900;50.788;12.904;2023-05-22T10:23:01;97313.53;;;25.10;44.13
72038;BME280;59900;50.788;12.904;2023-05-22T10:25:26;97314.06;;;25.12;44.90
72038;BME280;59900;50.788;12.904;2023-05-22T10:27:53;97316.44;;;25.14;44.29
72038;BME280;59900;50.788;12.904;2023-05-22T10:30:37;97305.31;;;25.20;44.63
72038;BME280;59900;50.788;12.904;2023-05-22T10:33:20;97304.84;;;25.32;44.61
72038;BME280;59900;50.788;12.904;2023-05-22T10:36:14;97307.25;;;25.33;43.47
72038;BME280;59900;50.788;12.904;2023-05-22T10:41:22;97306.44;;;25.33;42.30
72038;BME280;59900;50.788;12.904;2023-05-22T10:43:48;97303.81;;;25.28;42.19
72038;BME280;59900;50.788;12.904;2023-05-22T10:46:13;97297.06;;;25.30;42.47
72038;BME280;59900;50.788;12.904;2023-05-22T10:48:43;97302.56;;;25.39;41.85
72038;BME280;59900;50.788;12.904;2023-05-22T10:51:12;97301.44;;;25.40;42.25
72038;BME280;59900;50.788;12.904;2023-05-22T10:53:38;97294.03;;;25.50;41.82
72038;BME280;59900;50.788;12.904;2023-05-22T10:56:17;97301.09;;;25.60;42.04
72038;BME280;59900;50.788;12.904;2023-05-22T10:58:53;97299.16;;;25.66;42.52
72038;BME280;59900;50.788;12.904;2023-05-22T11:01:19;97294.03;;;25.78;42.88
72038;BME280;59900;50.788;12.904;2023-05-22T11:03:58;97288.75;;;25.86;41.53
72038;BME280;59900;50.788;12.904;2023-05-22T11:06:44;97294.53;;;25.93;41.63
72038;BME280;59900;50.788;12.904;2023-05-22T11:09:20;97290.44;;;25.96;42.55
72038;BME280;59900;50.788;12.904;2023-05-22T11:12:12;97287.97;;;25.99;42.01
72038;BME280;59900;50.788;12.904;2023-05-22T11:14:37;97288.53;;;26.10;42.68
72038;BME280;59900;50.788;12.904;2023-05-22T11:17:06;97287.94;;;26.13;42.18
72038;BME280;59900;50.788;12.904;2023-05-22T11:19:32;97291.56;;;26.08;42.09
72038;BME280;59900;50.788;12.904;2023-05-22T11:22:02;97282.38;;;26.23;43.02
72038;BME280;59900;50.788;12.904;2023-05-22T11:24:31;97287.84;;;26.32;42.77
72038;BME280;59900;50.788;12.904;2023-05-22T11:27:04;97274.84;;;26.34;41.79
72038;BME280;59900;50.788;12.904;2023-05-22T11:29:30;97283.88;;;26.29;42.17
72038;BME280;59900;50.788;12.904;2023-05-22T11:32:00;97277.38;;;26.30;42.37
72038;BME280;59900;50.788;12.904;2023-05-22T11:34:25;97276.28;;;26.31;42.05
72038;BME280;59900;50.788;12.904;2023-05-22T11:36:51;97272.25;;;26.42;42.07
72038;BME280;59900;50.788;12.904;2023-05-22T11:39:16;97268.78;;;26.42;41.56
72038;BME280;59900;50.788;12.904;2023-05-22T11:41:42;97271.84;;;26.49;42.43
72038;BME280;59900;50.788;12.904;2023-05-22T11:44:07;97267.13;;;26.54;42.04
72038;BME280;59900;50.788;12.904;2023-05-22T11:46:33;97264.00;;;26.61;42.17
72038;BME280;59900;50.788;12.904;2023-05-22T11:48:58;97263.72;;;26.62;41.83
72038;BME280;59900;50.788;12.904;2023-05-22T11:51:24;97261.78;;;26.63;41.58
72038;BME280;59900;50.788;12.904;2023-05-22T11:53:49;97260.38;;;26.65;41.22
72038;BME280;59900;50.788;12.904;2023-05-22T11:56:18;97262.47;;;26.68;40.51
72038;BME280;59900;50.788;12.904;2023-05-22T11:58:44;97263.66;;;26.76;41.08
72038;BME280;59900;50.788;12.904;2023-05-22T12:01:09;97256.50;;;26.94;39.84
72038;BME280;59900;50.788;12.904;2023-05-22T12:03:34;97265.56;;;26.98;39.95
72038;BME280;59900;50.788;12.904;2023-05-22T12:06:00;97254.09;;;27.14;40.41
72038;BME280;59900;50.788;12.904;2023-05-22T12:08:25;97263.09;;;27.32;39.83
72038;BME280;59900;50.788;12.904;2023-05-22T12:10:52;97259.53;;;27.54;39.85
72038;BME280;59900;50.788;12.904;2023-05-22T12:13:25;97257.38;;;27.64;39.73
72038;BME280;59900;50.788;12.904;2023-05-22T12:15:52;97253.09;;;27.72;38.84
72038;BME280;59900;50.788;12.904;2023-05-22T12:18:17;97250.13;;;27.82;38.20
72038;BME280;59900;50.788;12.904;2023-05-22T12:20:43;97247.72;;;27.80;38.14
72038;BME280;59900;50.788;12.904;2023-05-22T12:23:20;97249.19;;;27.87;37.93
72038;BME280;59900;50.788;12.904;2023-05-22T12:25:45;97247.44;;;27.91;38.43
72038;BME280;59900;50.788;12.904;2023-05-22T12:28:10;97246.03;;;28.02;39.23
72038;BME280;59900;50.788;12.904;2023-05-22T12:30:40;97235.06;;;27.98;37.96
72038;BME280;59900;50.788;12.904;2023-05-22T12:33:11;97250.78;;;27.88;37.91
72038;BME280;59900;50.788;12.904;2023-05-22T12:35:37;97249.34;;;27.90;38.01
72038;BME280;59900;50.788;12.904;2023-05-22T12:38:02;97247.28;;;27.96;38.04
72038;BME280;59900;50.788;12.904;2023-05-22T12:40:27;97243.84;;;28.04;38.09
72038;BME280;59900;50.788;12.904;2023-05-22T12:42:52;97249.06;;;28.00;37.95
72038;BME280;59900;50.788;12.904;2023-05-22T12:45:18;97237.34;;;28.05;38.08
72038;BME280;59900;50.788;12.904;2023-05-22T12:47:43;97230.19;;;28.09;38.36
72038;BME280;59900;50.788;12.904;2023-05-22T12:50:08;97230.03;;;28.05;37.45
72038;BME280;59900;50.788;12.904;2023-05-22T12:52:34;97229.03;;;28.01;37.23
72038;BME280;59900;50.788;12.904;2023-05-22T12:54:59;97234.63;;;28.05;37.39
72038;BME280;59900;50.788;12.904;2023-05-22T12:57:25;97239.09;;;28.09;37.17
72038;BME280;59900;50.788;12.904;2023-05-22T12:59:50;97235.91;;;28.07;37.46